Time;durP1;ratioP1;P1;durP2;ratioP2;P2;SDS_P1;SDS_P2;PMS_P1;PMS_P2;Temp;Humidity;BMP_temperature;BMP_pressure;BME280_temperature;BME280_humidity;BME280_pressure;Samples;Min_cycle;Max_cycle;Signal;HPM_P1;HPM_P2
2023/10/04 00:01:35;;;;;;;11.8;6.1;;;;;;;16.62;88.02;;;;;
2023/10/04 00:12:35;;;;;;;10.5;4;;;;;;;16.33;88;;;;;
2023/10/04 00:22:36;;;;;;;10.5;4;;;;;;;16.12;87.29;;;;;
2023/10/04 00:32:36;;;;;;;10.5;4;;;;;;;15.96;88.37;;;;;
2023/10/04 00:43:37;;;;;;;5.2;2.7;;;;;;;15.75;88.24;;;;;
2023/10/04 00:53:35;;;;;;;5.2;2.7;;;;;;;15.59;88.19;;;;;
2023/10/04 01:04:35;;;;;;;5.2;2.7;;;;;;;15.37;88.59;;;;;
2023/10/04 01:14:38;;;;;;;6.4;2.5;;;;;;;15.14;89.15;;;;;
2023/10/04 01:25:35;;;;;;;6.4;2.5;;;;;;;15.16;88.97;;;;;
2023/10/04 01:36:38;;;;;;;7.9;4.5;;;;;;;15.21;88.38;;;;;
2023/10/04 01:46:36;;;;;;;7.9;4.5;;;;;;;15.19;87.76;;;;;
2023/10/04 01:57:35;;;;;;;7.9;4.5;;;;;;;15.01;88.1;;;;;
2023/10/04 02:08:34;;;;;;;5.5;3.1;;;;;;;14.96;87.55;;;;;
2023/10/04 02:18:35;;;;;;;5.5;3.1;;;;;;;14.93;87.3;;;;;
2023/10/04 02:29:35;;;;;;;5.5;3.1;;;;;;;14.88;87.28;;;;;
2023/10/04 02:39:37;;;;;;;7.1;2.9;;;;;;;14.89;86.19;;;;;
2023/10/04 02:49:35;;;;;;;7.1;2.9;;;;;;;14.85;85.54;;;;;
2023/10/04 02:59:36;;;;;;;7.1;2.9;;;;;;;14.83;85.53;;;;;
2023/10/04 03:09:37;;;;;;;6.6;2.6;;;;;;;14.71;84.93;;;;;
2023/10/04 03:20:35;;;;;;;6.6;2.6;;;;;;;14.6;84.72;;;;;
2023/10/04 03:31:35;;;;;;;6.6;2.6;;;;;;;14.46;84.8;;;;;
2023/10/04 03:41:36;;;;;;;4.6;2.2;;;;;;;14.32;84.69;;;;;
2023/10/04 03:51:35;;;;;;;4.6;2.2;;;;;;;14.06;85.38;;;;;
2023/10/04 04:01:37;;;;;;;4.6;2.2;;;;;;;13.9;85.3;;;;;
2023/10/04 04:12:37;;;;;;;5.3;2.8;;;;;;;13.88;85.28;;;;;
2023/10/04 04:23:35;;;;;;;5.3;2.8;;;;;;;13.75;84.25;;;;;
2023/10/04 04:33:35;;;;;;;5.3;2.8;;;;;;;13.72;83.13;;;;;
2023/10/04 04:43:36;;;;;;;5.8;2.7;;;;;;;13.53;82.54;;;;;
2023/10/04 04:54:35;;;;;;;5.8;2.7;;;;;;;13.41;82.61;;;;;
2023/10/04 05:04:36;;;;;;;5.8;2.7;;;;;;;13.42;82.87;;;;;
2023/10/04 05:15:38;;;;;;;9.1;2.8;;;;;;;13.55;83.38;;;;;
2023/10/04 05:25:36;;;;;;;9.1;2.8;;;;;;;13.35;83.57;;;;;
2023/10/04 05:35:35;;;;;;;9.1;2.8;;;;;;;13.32;82.53;;;;;
2023/10/04 05:45:36;;;;;;;5.3;2.8;;;;;;;13.12;82.55;;;;;
2023/10/04 05:55:35;;;;;;;5.3;2.8;;;;;;;12.96;82.57;;;;;
2023/10/04 06:05:35;;;;;;;5.3;2.8;;;;;;;12.78;83.03;;;;;
2023/10/04 06:16:36;;;;;;;6.7;2.4;;;;;;;12.91;82.44;;;;;
2023/10/04 06:26:35;;;;;;;6.7;2.4;;;;;;;13.25;80.27;;;;;
2023/10/04 06:37:36;;;;;;;4.8;2.4;;;;;;;13.47;79.47;;;;;
2023/10/04 06:48:36;;;;;;;4.8;2.4;;;;;;;13.86;79.42;;;;;
2023/10/04 06:59:35;;;;;;;4.8;2.4;;;;;;;13.98;78.3;;;;;
2023/10/04 07:09:35;;;;;;;5.5;2.1;;;;;;;14.29;76.79;;;;;
2023/10/04 07:20:35;;;;;;;5.5;2.1;;;;;;;14.35;74.85;;;;;
2023/10/04 07:31:36;;;;;;;5.5;2.1;;;;;;;14.3;75.64;;;;;
2023/10/04 07:41:37;;;;;;;6.3;3.2;;;;;;;14.45;75.63;;;;;
2023/10/04 07:52:36;;;;;;;6.3;3.2;;;;;;;14.62;73.69;;;;;
2023/10/04 08:02:35;;;;;;;6.3;3.2;;;;;;;14.84;73.39;;;;;
2023/10/04 08:13:35;;;;;;;5;2.7;;;;;;;15.17;72.4;;;;;
2023/10/04 08:23:35;;;;;;;5;2.7;;;;;;;15.1;71.94;;;;;
2023/10/04 08:34:35;;;;;;;5;2.7;;;;;;;16.08;69.53;;;;;
2023/10/04 08:44:35;;;;;;;3.7;1.9;;;;;;;16.18;66.97;;;;;
2023/10/04 08:55:35;;;;;;;3.7;1.9;;;;;;;16.52;66.1;;;;;
2023/10/04 09:06:35;;;;;;;5.1;2;;;;;;;16.52;63.44;;;;;
2023/10/04 09:17:35;;;;;;;5.1;2;;;;;;;16.57;63.62;;;;;
2023/10/04 09:28:35;;;;;;;5.1;2;;;;;;;16.74;62.34;;;;;
2023/10/04 09:38:36;;;;;;;6.8;2.5;;;;;;;17.02;62.35;;;;;
2023/10/04 09:49:36;;;;;;;6.8;2.5;;;;;;;17.34;61.38;;;;;
2023/10/04 10:00:35;;;;;;;6.8;2.5;;;;;;;17.58;61.42;;;;;
2023/10/04 10:11:35;;;;;;;5.6;2.4;;;;;;;17.14;60.59;;;;;
2023/10/04 10:21:35;;;;;;;5.6;2.4;;;;;;;16.98;60.06;;;;;
2023/10/04 10:31:35;;;;;;;5.6;2.4;;;;;;;17.09;59.06;;;;;
2023/10/04 10:42:35;;;;;;;5.9;2.4;;;;;;;17.55;60.45;;;;;
2023/10/04 10:52:38;;;;;;;5.9;2.4;;;;;;;17.43;58.6;;;;;
2023/10/04 11:02:35;;;;;;;5.9;2.4;;;;;;;17.86;58.01;;;;;
2023/10/04 11:12:38;;;;;;;4.5;2;;;;;;;17.81;57.05;;;;;
2023/10/04 11:23:37;;;;;;;4.5;2;;;;;;;18.08;56.47;;;;;
2023/10/04 11:34:36;;;;;;;4.5;2;;;;;;;17.78;57.65;;;;;
2023/10/04 11:45:36;;;;;;;6;1.7;;;;;;;18.07;57.26;;;;;
2023/10/04 11:56:35;;;;;;;6;1.7;;;;;;;18.16;56.38;;;;;
2023/10/04 12:06:36;;;;;;;9;1.9;;;;;;;18.17;55.48;;;;;
2023/10/04 12:17:35;;;;;;;9;1.9;;;;;;;17.84;55.13;;;;;
2023/10/04 12:27:36;;;;;;;9;1.9;;;;;;;17.9;56.99;;;;;
2023/10/04 12:37:36;;;;;;;4.6;1.9;;;;;;;17.72;58.16;;;;;
2023/10/04 12:48:36;;;;;;;4.6;1.9;;;;;;;18.15;58.61;;;;;
2023/10/04 12:59:35;;;;;;;4.6;1.9;;;;;;;18.57;54.36;;;;;
2023/10/04 13:10:36;;;;;;;6.6;2;;;;;;;18.68;52.81;;;;;
2023/10/04 13:20:37;;;;;;;6.6;2;;;;;;;18.35;54.01;;;;;
2023/10/04 13:30:36;;;;;;;6.6;2;;;;;;;18.31;53.24;;;;;
2023/10/04 13:40:36;;;;;;;4.5;1.9;;;;;;;18.33;53.03;;;;;
2023/10/04 13:51:36;;;;;;;4.5;1.9;;;;;;;18.82;54.14;;;;;
2023/10/04 14:02:36;;;;;;;4.5;1.9;;;;;;;18.33;51.58;;;;;
2023/10/04 14:13:37;;;;;;;4.1;2.1;;;;;;;18.15;50.13;;;;;
2023/10/04 14:24:36;;;;;;;4.1;2.1;;;;;;;18.17;50.7;;;;;
2023/10/04 14:35:36;;;;;;;4.1;2.1;;;;;;;18.09;51.01;;;;;
2023/10/04 14:45:36;;;;;;;5;2;;;;;;;17.81;50.7;;;;;
2023/10/04 14:56:36;;;;;;;5;2;;;;;;;17.64;49.81;;;;;
2023/10/04 15:07:36;;;;;;;4.7;2.3;;;;;;;17.15;52.41;;;;;
2023/10/04 15:18:36;;;;;;;4.7;2.3;;;;;;;16.73;54.07;;;;;
2023/10/04 15:29:36;;;;;;;4.7;2.3;;;;;;;16.33;55.9;;;;;
2023/10/04 15:39:36;;;;;;;6.3;2.3;;;;;;;15.77;57.33;;;;;
2023/10/04 15:50:37;;;;;;;6.3;2.3;;;;;;;15.36;59.03;;;;;
2023/10/04 16:01:36;;;;;;;6.3;2.3;;;;;;;14.94;60.48;;;;;
2023/10/04 16:12:36;;;;;;;5.8;2.4;;;;;;;14.55;62.72;;;;;
2023/10/04 16:22:39;;;;;;;5.8;2.4;;;;;;;14.25;64.48;;;;;
2023/10/04 16:33:36;;;;;;;5.8;2.4;;;;;;;13.96;67.36;;;;;
2023/10/04 16:43:36;;;;;;;10.7;3.8;;;;;;;13.46;68.18;;;;;
2023/10/04 16:54:36;;;;;;;10.7;3.8;;;;;;;12.92;69.1;;;;;
2023/10/04 17:04:36;;;;;;;10.7;3.8;;;;;;;12.64;69.88;;;;;
2023/10/04 17:15:37;;;;;;;6.1;2.2;;;;;;;12.15;72.26;;;;;
2023/10/04 17:26:36;;;;;;;6.1;2.2;;;;;;;11.86;73.13;;;;;
2023/10/04 17:37:36;;;;;;;6.1;2.3;;;;;;;11.73;75.03;;;;;
2023/10/04 17:47:36;;;;;;;6.1;2.3;;;;;;;11.51;77.52;;;;;
2023/10/04 17:57:36;;;;;;;6.1;2.3;;;;;;;11.53;77.81;;;;;
2023/10/04 18:08:36;;;;;;;5.8;2.6;;;;;;;11.58;77.32;;;;;
2023/10/04 18:19:36;;;;;;;5.8;2.6;;;;;;;11.57;76.88;;;;;
2023/10/04 18:30:36;;;;;;;5.8;2.6;;;;;;;11.49;76.98;;;;;
2023/10/04 18:40:36;;;;;;;7.1;3.1;;;;;;;11.27;78.81;;;;;
2023/10/04 18:51:37;;;;;;;7.1;3.1;;;;;;;11.26;78.7;;;;;
2023/10/04 19:02:37;;;;;;;7.1;3.1;;;;;;;11.12;79.89;;;;;
2023/10/04 19:12:36;;;;;;;7;3;;;;;;;11.13;79.56;;;;;
2023/10/04 19:23:36;;;;;;;7;3;;;;;;;11.02;79.98;;;;;
2023/10/04 19:33:36;;;;;;;7;3;;;;;;;11.03;79.65;;;;;
2023/10/04 19:44:37;;;;;;;8.1;3.5;;;;;;;11.02;79.32;;;;;
2023/10/04 19:55:36;;;;;;;8.1;3.5;;;;;;;11.04;79.01;;;;;
2023/10/04 20:06:37;;;;;;;9.2;2.8;;;;;;;11;78.67;;;;;
2023/10/04 20:16:36;;;;;;;9.2;2.8;;;;;;;10.92;79.53;;;;;
2023/10/04 20:27:36;;;;;;;9.2;2.8;;;;;;;10.9;79.86;;;;;
2023/10/04 20:38:36;;;;;;;5.8;2.4;;;;;;;10.85;79.27;;;;;
2023/10/04 20:48:36;;;;;;;5.8;2.4;;;;;;;10.59;79.06;;;;;
2023/10/04 20:59:36;;;;;;;5.8;2.4;;;;;;;10.47;80.22;;;;;
2023/10/04 21:10:36;;;;;;;4.7;1.8;;;;;;;10.33;79.81;;;;;
2023/10/04 21:21:36;;;;;;;4.7;1.8;;;;;;;10.07;80.59;;;;;
2023/10/04 21:32:37;;;;;;;4.7;1.8;;;;;;;9.82;80.76;;;;;
2023/10/04 21:43:36;;;;;;;7.4;3.8;;;;;;;9.54;80.99;;;;;
2023/10/04 21:53:36;;;;;;;7.4;3.8;;;;;;;9.34;82.22;;;;;
2023/10/04 22:04:36;;;;;;;7.4;3.8;;;;;;;9.18;83.29;;;;;
2023/10/04 22:14:39;;;;;;;5.6;3.1;;;;;;;9.12;84.03;;;;;
2023/10/04 22:25:36;;;;;;;5.6;3.1;;;;;;;9.07;83.98;;;;;
2023/10/04 22:35:36;;;;;;;5.6;3.1;;;;;;;8.95;84.22;;;;;
2023/10/04 22:46:36;;;;;;;5.3;2.9;;;;;;;8.94;84.76;;;;;
2023/10/04 22:56:39;;;;;;;5.3;2.9;;;;;;;8.86;84.88;;;;;
2023/10/04 23:07:36;;;;;;;5;2.9;;;;;;;8.78;84.86;;;;;
2023/10/04 23:18:36;;;;;;;5;2.9;;;;;;;8.76;85.49;;;;;
2023/10/04 23:29:37;;;;;;;5;2.9;;;;;;;8.88;85.99;;;;;
2023/10/04 23:40:44;;;;;;;5.5;2.4;;;;;;;9.07;86.38;;;;;
2023/10/04 23:51:36;;;;;;;5.5;2.4;;;;;;;9.14;85.52;;;;;
